createdAt,value
2023-03-06T00:02:19.091Z,1002.3756744276034
2023-03-06T00:07:15.462Z,1002.4017502593899
2023-03-06T00:12:11.583Z,1002.3678867645086
2023-03-06T00:17:07.882Z,1002.3000522851595
2023-03-06T00:22:04.105Z,1002.2621492247036
2023-03-06T00:27:00.586Z,1002.2888133074696
2023-03-06T00:31:56.662Z,1002.2494469244725
2023-03-06T00:36:52.947Z,1002.2790664123542
2023-03-06T00:41:49.176Z,1002.2234921580953
2023-03-06T00:46:45.419Z,1002.1520116258508
2023-03-06T00:51:41.698Z,1002.1945749120615
2023-03-06T00:56:37.916Z,1002.1972556549465
2023-03-06T01:06:38.458Z,1002.0929608394392
2023-03-06T01:11:34.695Z,1001.9742148631044
2023-03-06T01:16:36.027Z,1001.8802782436712
2023-03-06T01:21:32.179Z,1001.8947830913428
2023-03-06T01:26:27.461Z,1001.8799488409092
2023-03-06T01:31:23.717Z,1001.8443037702713
2023-03-06T01:36:19.962Z,1001.8404451856285
2023-03-06T01:41:17.226Z,1001.8485113978102
2023-03-06T01:46:25.509Z,1001.8870728106541
2023-03-06T01:51:22.752Z,1001.8651101127679
2023-03-06T01:56:19.037Z,1001.8384549504719
2023-03-06T02:01:15.296Z,1001.7533533198517
2023-03-06T02:06:12.599Z,1001.7602498993732
2023-03-06T02:11:14.887Z,1001.7355855163739
2023-03-06T02:16:11.986Z,1001.6987355042326
2023-03-06T02:21:10.278Z,1001.6778413599088
2023-03-06T02:26:09.529Z,1001.6755048023857
2023-03-06T02:31:06.819Z,1001.5750988463551
2023-03-06T02:36:05.043Z,1001.5705164720771
2023-03-06T02:41:03.291Z,1001.5127816488658
2023-03-06T02:46:03.655Z,1001.5349871320522
2023-03-06T02:50:59.787Z,1001.4302876780115
2023-03-06T02:55:56.241Z,1001.449030053171
2023-03-06T03:00:52.277Z,1001.3764720204558
2023-03-06T03:05:48.563Z,1001.412004485009
2023-03-06T03:10:44.840Z,1001.5313426742888
2023-03-06T03:15:41.218Z,1001.5289759172482
2023-03-06T03:20:41.329Z,1001.6060290613827
2023-03-06T03:25:38.604Z,1001.6380882809088
2023-03-06T03:30:34.851Z,1001.6157507370667
2023-03-06T03:35:31.222Z,1001.6167714078639
2023-03-06T03:40:27.392Z,1001.5547915667169
2023-03-06T03:45:23.599Z,1001.5099679462962
2023-03-06T03:50:19.897Z,1001.4656596240486
2023-03-06T03:55:16.133Z,1001.5185560702096
2023-03-06T04:00:12.418Z,1001.5026233104131
2023-03-06T04:05:09.726Z,1001.4923964949178
2023-03-06T04:10:06.889Z,1001.526223849633
2023-03-06T04:15:04.198Z,1001.4898329457247
2023-03-06T04:20:00.465Z,1001.3167288423871
2023-03-06T04:24:56.708Z,1001.2169762580525
2023-03-06T04:29:52.940Z,1001.134870099513
2023-03-06T04:34:49.265Z,1001.1414404630995
2023-03-06T04:39:45.450Z,1001.1401770567245
2023-03-06T04:44:41.779Z,1001.093195987134
2023-03-06T04:49:37.979Z,1001.0773214259311
2023-03-06T04:54:34.291Z,1001.0049205215834
2023-03-06T04:59:30.517Z,1001.0550942540011
2023-03-06T05:04:26.809Z,1000.9012828269381
2023-03-06T05:09:23.072Z,1001.0093085402741
2023-03-06T05:14:19.333Z,1001.03985547617
2023-03-06T05:19:15.541Z,1001.0345942701581
2023-03-06T05:24:11.781Z,1000.9985472636538
2023-03-06T05:29:08.090Z,1000.9661728420289
2023-03-06T05:34:04.345Z,1001.0206908716893
2023-03-06T05:39:00.609Z,1001.0917442571492
2023-03-06T05:43:56.854Z,1001.1322173049147
2023-03-06T05:48:54.114Z,1001.1634813007289
2023-03-06T05:53:50.567Z,1001.0257865345259
2023-03-06T05:58:46.650Z,1001.099030648049
2023-03-06T06:03:42.930Z,1001.2315241106754
2023-03-06T06:08:39.234Z,1001.3139773022965
2023-03-06T06:13:35.374Z,1001.2774382511362
2023-03-06T06:18:31.697Z,1001.2588064437721
2023-03-06T06:23:28.008Z,1001.242388967685
2023-03-06T06:28:27.153Z,1001.2947924222183
2023-03-06T06:33:23.408Z,1001.3444650283884
2023-03-06T06:38:19.806Z,1001.2582252459173
2023-03-06T06:43:15.962Z,1001.0538722711055
2023-03-06T06:48:12.235Z,1000.9541438368603
2023-03-06T06:53:08.452Z,1000.9285265532961
2023-03-06T06:58:04.708Z,1000.8803857983391
2023-03-06T07:03:00.952Z,1000.8134968259841
2023-03-06T07:07:57.286Z,1000.7766955906256
2023-03-06T07:12:53.535Z,1000.6785048916067
2023-03-06T07:17:50.340Z,1000.6934067071435
2023-03-06T07:22:51.432Z,1000.8035911864188
2023-03-06T07:27:53.601Z,1000.8099779190156
2023-03-06T07:32:52.532Z,1000.8269225934308
2023-03-06T07:37:47.803Z,1000.690659530469
2023-03-06T07:42:44.219Z,1000.6963981432866
2023-03-06T07:47:40.282Z,1000.6579028201407
2023-03-06T07:52:35.581Z,1000.6443353716796
2023-03-06T07:57:31.835Z,1000.6960972894782
2023-03-06T08:02:28.070Z,1000.7418158535023
2023-03-06T08:07:24.362Z,1000.811840103814
2023-03-06T08:12:20.588Z,1000.8550468607235
2023-03-06T08:17:16.856Z,1000.8656080840987
2023-03-06T08:22:13.134Z,1001.0075762037262
2023-03-06T08:27:09.388Z,1000.9320767920449
2023-03-06T08:32:10.884Z,1001.0150447415197
2023-03-06T08:37:06.891Z,1001.0922499200797
2023-03-06T08:42:03.135Z,1001.0010805209147
2023-03-06T08:47:00.370Z,1001.0601728944775
2023-03-06T08:51:56.668Z,1000.9776767127295
2023-03-06T08:56:53.859Z,1000.930828619104
2023-03-06T09:01:52.188Z,1001.0074655588501
2023-03-06T09:06:48.415Z,1000.9036962021908
2023-03-06T09:11:46.692Z,1000.9672161166864
2023-03-06T09:16:42.999Z,1000.908487861249
2023-03-06T09:21:40.477Z,1000.9353976206214
2023-03-06T09:26:45.945Z,1000.7010188271447
2023-03-06T09:31:41.949Z,1000.5626852766386
2023-03-06T09:36:54.967Z,1000.6683150874231
2023-03-06T09:41:46.171Z,1000.7992667452174
2023-03-06T09:46:53.401Z,1000.6942421133147
2023-03-06T09:51:57.617Z,1000.546603501291
2023-03-06T09:56:54.918Z,1000.596975120664
2023-03-06T10:01:58.160Z,1000.5357566581314
2023-03-06T10:06:59.396Z,1000.6550270415541
2023-03-06T10:12:00.665Z,1000.5330139150352
2023-03-06T10:16:58.896Z,1000.5079439374479
2023-03-06T10:22:02.167Z,1000.4255816962113
2023-03-06T10:27:07.446Z,1000.3896789641861
2023-03-06T10:32:10.745Z,1000.2734920843926
2023-03-06T10:37:12.864Z,1000.1654250074099
2023-03-06T10:42:09.108Z,1000.09739102904
2023-03-06T10:47:14.352Z,1000.0167515856557
2023-03-06T10:52:15.627Z,999.885775800925
2023-03-06T10:57:18.822Z,999.9807631333055
2023-03-06T11:02:24.069Z,999.7982634885468
2023-03-06T11:07:21.346Z,999.7325088598736
2023-03-06T11:12:20.645Z,999.5908415234126
2023-03-06T11:17:27.862Z,999.5125579502975
2023-03-06T11:22:32.105Z,999.3917588052005
2023-03-06T11:27:30.348Z,999.2211043206861
2023-03-06T11:32:30.691Z,999.1804354920313
2023-03-06T11:37:34.756Z,999.0042701289915
2023-03-06T11:42:38.045Z,998.9510049541541
2023-03-06T11:47:42.285Z,998.8035673869391
2023-03-06T11:52:46.570Z,998.6879956884343
2023-03-06T11:57:49.769Z,998.5986273724951
2023-03-06T12:08:06.237Z,998.4498444248451
2023-03-06T12:13:17.422Z,998.2577472353795
2023-03-06T12:18:29.629Z,998.2600429320152
2023-03-06T12:23:38.918Z,998.1516818861263
2023-03-06T12:28:51.171Z,998.0351052647945
2023-03-06T12:33:58.336Z,998.0384447244095
2023-03-06T12:39:07.591Z,998.1031508741471
2023-03-06T12:44:17.822Z,998.1256303147524
2023-03-06T12:49:31.083Z,998.2014030658316
2023-03-06T12:54:23.314Z,998.1402792657304
2023-03-06T12:59:30.564Z,998.1146416942438
2023-03-06T13:04:40.724Z,998.0264914726032
2023-03-06T13:09:48.955Z,998.0508308043371
2023-03-06T13:14:54.608Z,998.0337997191407
2023-03-06T13:19:57.476Z,997.9384724268989
2023-03-06T13:25:08.226Z,997.9263027529665
2023-03-06T13:30:54.164Z,997.9078471209182
2023-03-06T13:36:08.114Z,997.7883085146183
2023-03-06T13:41:15.237Z,997.7350680312779
2023-03-06T13:46:18.528Z,997.7543425140852
2023-03-06T13:51:19.743Z,997.7018241717684
2023-03-06T13:56:26.961Z,997.6685674242088
2023-03-06T14:01:39.252Z,997.6577138318798
2023-03-06T14:06:46.443Z,997.6193925792111
2023-03-06T14:11:50.712Z,997.6519017354361
2023-03-06T14:16:51.087Z,997.6260410552084
2023-03-06T14:26:57.439Z,997.4623586560022
2023-03-06T14:31:55.666Z,997.4451398051401
2023-03-06T14:36:53.923Z,997.3564642792097
2023-03-06T14:42:01.200Z,997.3272584736646
2023-03-06T14:47:02.430Z,997.1466869248425
2023-03-06T14:51:58.662Z,997.0348719885322
2023-03-06T14:56:59.925Z,997.0972421208261
2023-03-06T15:02:00.330Z,997.0681080299535
2023-03-06T15:06:58.489Z,996.9969963834114
2023-03-06T15:11:55.624Z,996.9478663628606
2023-03-06T15:17:02.946Z,996.9444680612484
2023-03-06T15:22:01.169Z,996.9191116597533
2023-03-06T15:27:00.383Z,996.9099672597902
2023-03-06T15:32:07.679Z,996.987270451908
2023-03-06T15:42:16.155Z,996.9268691131667
2023-03-06T15:47:12.395Z,996.8668144916151
2023-03-06T15:52:08.610Z,996.9265173869987
2023-03-06T15:57:06.885Z,996.9749254463989
2023-03-06T16:00:27.942Z,997.0576420912397
2023-03-06T16:05:24.656Z,997.0108739793753
2023-03-06T16:10:22.901Z,997.0364532669429
2023-03-06T16:17:19.863Z,996.9020978372938
2023-03-06T16:23:27.937Z,996.771291900605
2023-03-06T16:28:25.227Z,996.7522066737499
2023-03-06T16:33:20.455Z,996.7870451457499
2023-03-06T16:38:17.673Z,996.7869376051008
2023-03-06T16:43:13.954Z,996.7466271856954
2023-03-06T16:48:13.215Z,996.8429914282636
2023-03-06T16:53:09.481Z,996.8345125860708
2023-03-06T16:58:05.720Z,996.8384615627562
2023-03-06T17:03:02.078Z,996.9817148255029
2023-03-06T17:07:58.306Z,996.9902210106487
2023-03-06T17:12:55.693Z,997.0110688144835
2023-03-06T17:17:51.827Z,997.1032718618096
2023-03-06T17:22:48.013Z,997.2207610621186
2023-03-06T17:27:44.362Z,997.2800407575138
2023-03-06T17:32:40.631Z,997.2165654690763
2023-03-06T17:37:36.911Z,997.3280644494502
2023-03-06T17:42:34.065Z,997.2897336819605
2023-03-06T17:47:30.338Z,997.2333129930795
2023-03-06T17:52:27.584Z,997.1763888407439
2023-03-06T17:57:23.836Z,997.0408605879325
2023-03-06T18:02:20.118Z,996.9726966498603
2023-03-06T18:07:16.415Z,996.8980945422059
2023-03-06T18:12:12.661Z,996.9137913408177
2023-03-06T18:17:08.906Z,997.0192561228777
2023-03-06T18:22:05.151Z,997.0497189934645
2023-03-06T18:27:01.420Z,997.0592802838547
2023-03-06T18:31:58.749Z,997.0764551435327
2023-03-06T18:36:55.919Z,997.0836981285378
2023-03-06T18:41:52.197Z,996.8881045295224
2023-03-06T18:46:48.442Z,996.7967138011621
2023-03-06T18:51:49.711Z,996.7470617037803
2023-03-06T18:56:46.969Z,996.6988858965086
2023-03-06T19:01:43.169Z,996.7180389221242
2023-03-06T19:06:41.451Z,996.7352267945039
2023-03-06T19:11:38.704Z,996.7949223459941
2023-03-06T19:16:35.122Z,996.8905188289834
2023-03-06T19:26:41.477Z,997.0790864974548
2023-03-06T19:31:39.746Z,997.2472905483171
2023-03-06T19:36:35.012Z,997.2543526138784
2023-03-06T19:41:31.234Z,997.3647849939063
2023-03-06T19:46:27.532Z,997.3612151046866
2023-03-06T19:51:23.768Z,997.4862403107634
2023-03-06T19:56:21.081Z,997.4745189355349
2023-03-06T20:01:18.319Z,997.4749190439293
2023-03-06T20:06:18.532Z,997.5665288061883
2023-03-06T20:11:15.795Z,997.5519850724456
2023-03-06T20:16:12.177Z,997.6023610705505
2023-03-06T20:21:08.341Z,997.5215195019562
2023-03-06T20:26:07.531Z,997.4752204448456
2023-03-06T20:30:38.120Z,997.4273160566685
2023-03-06T20:35:39.110Z,997.5312096141672
2023-03-06T20:44:39.800Z,997.5019141120247
2023-03-06T20:48:36.175Z,997.4710816325043
2023-03-06T20:53:34.431Z,997.4461579729696
2023-03-06T20:58:32.742Z,997.4803868215937
2023-03-06T21:03:29.964Z,997.5514605793447
2023-03-06T21:08:26.169Z,997.2756843116098
2023-03-06T21:13:22.479Z,997.2808277344976
2023-03-06T21:18:18.681Z,997.2474497360873
2023-03-06T21:23:14.990Z,997.1412277048004
2023-03-06T21:28:11.265Z,997.1406684747244
2023-03-06T21:33:10.534Z,997.0489668508905
2023-03-06T21:38:07.754Z,997.0970916883518
2023-03-06T21:43:05.982Z,997.0110256815985
2023-03-06T21:48:03.257Z,996.953186295797
2023-03-06T21:52:59.487Z,996.8490652457007
2023-03-06T21:57:55.806Z,996.7815107086245
2023-03-06T22:02:52.035Z,996.7131529572725
2023-03-06T22:07:48.354Z,996.6487157468658
2023-03-06T22:12:45.578Z,996.5758341486611
2023-03-06T22:17:34.856Z,996.5723908189116
2023-03-06T22:20:30.400Z,996.5934849695861
2023-03-06T22:23:26.950Z,996.477106412915
2023-03-06T22:26:33.477Z,996.4876788445343
2023-03-06T22:27:42.311Z,996.5132636353487
2023-03-06T22:30:11.957Z,996.5820367081254
2023-03-06T22:33:07.481Z,996.4906472515052
2023-03-06T22:36:06.197Z,996.4628975665094
2023-03-06T22:39:02.602Z,996.4333531252636
2023-03-06T22:41:59.171Z,996.4303149020158
2023-03-06T22:44:55.038Z,996.3879521208404
2023-03-06T22:50:55.819Z,996.4228301843837
2023-03-06T22:53:51.373Z,996.4497136089309
2023-03-06T22:56:47.972Z,996.4329556970051
2023-03-06T22:59:43.499Z,996.3888657609016
2023-03-06T23:02:40.043Z,996.407401472219
2023-03-06T23:05:39.606Z,996.400777762207
2023-03-06T23:08:36.181Z,996.4461700345007
2023-03-06T23:11:32.752Z,996.4807790242069
2023-03-06T23:14:29.295Z,996.5351978036392
2023-03-06T23:17:24.839Z,996.5273882658098
2023-03-06T23:20:21.400Z,996.7829081705224
2023-03-06T23:23:16.990Z,997.0153171669843
2023-03-06T23:26:13.554Z,997.1047776105553
2023-03-06T23:29:09.073Z,997.1268486739776
2023-03-06T23:32:05.769Z,997.1125401757014
2023-03-06T23:35:01.260Z,997.1094427005793
2023-03-06T23:37:57.782Z,997.2174050979953
2023-03-06T23:40:53.325Z,997.2566894213933
2023-03-06T23:43:49.875Z,997.2650184175128
2023-03-06T23:46:46.427Z,997.234760260503
2023-03-06T23:49:41.977Z,997.2768004560189
2023-03-06T23:55:44.130Z,997.3889896690571
2023-03-06T23:58:40.699Z,997.384163298027
